Time;durP1;ratioP1;P1;durP2;ratioP2;P2;SDS_P1;SDS_P2;PMS_P1;PMS_P2;Temp;Humidity;BMP_temperature;BMP_pressure;BME280_temperature;BME280_humidity;BME280_pressure;Samples;Min_cycle;Max_cycle;Signal;HPM_P1;HPM_P2
2022/12/06 00:00:43;;;;;;;15.20;5.63;;;;;;;3.74;100.00;102357.81;7375708;19;20019;-79
2022/12/06 00:03:13;;;;;;;11.43;5.57;;;;;;;3.72;100.00;102362.03;7372954;19;20517;-79
2022/12/06 00:05:46;;;;;;;15.27;6.22;;;;;;;3.70;100.00;102366.22;7373017;19;20010;-78
2022/12/06 00:08:16;;;;;;;17.92;5.60;;;;;;;3.67;100.00;102366.91;7368739;19;20241;-78
2022/12/06 00:10:47;;;;;;;12.48;5.55;;;;;;;3.62;100.00;102370.91;7368717;19;20082;-78
2022/12/06 00:13:17;;;;;;;12.35;5.28;;;;;;;3.56;100.00;102370.50;7371536;19;20019;-78
2022/12/06 00:15:49;;;;;;;14.07;5.90;;;;;;;3.50;100.00;102373.59;7371189;19;20007;-79
2022/12/06 00:18:19;;;;;;;13.35;6.13;;;;;;;3.42;100.00;102363.50;7373101;19;20011;-78
2022/12/06 00:20:51;;;;;;;13.27;5.13;;;;;;;3.35;100.00;102367.38;7375601;19;20025;-79
2022/12/06 00:23:22;;;;;;;14.23;5.10;;;;;;;3.32;100.00;102369.78;7367093;19;20022;-76
2022/12/06 00:25:58;;;;;;;12.98;5.88;;;;;;;3.27;100.00;102369.47;7378587;19;20348;-76
2022/12/06 00:28:28;;;;;;;13.73;6.00;;;;;;;3.24;100.00;102360.56;7379090;19;20070;-76
2022/12/06 00:31:00;;;;;;;12.48;6.20;;;;;;;3.16;100.00;102354.88;7379504;19;20033;-76
2022/12/06 00:33:31;;;;;;;12.90;5.95;;;;;;;3.13;100.00;102361.56;7376927;19;20422;-75
2022/12/06 00:36:05;;;;;;;15.40;5.82;;;;;;;3.12;100.00;102354.59;7377777;19;20038;-75
2022/12/06 00:38:36;;;;;;;11.88;5.18;;;;;;;3.10;100.00;102358.78;7379175;19;20015;-75
2022/12/06 00:41:09;;;;;;;12.18;5.40;;;;;;;3.07;100.00;102359.47;7376874;19;20056;-75
2022/12/06 00:43:39;;;;;;;11.57;5.60;;;;;;;3.06;100.00;102356.78;7380382;19;20048;-78
2022/12/06 00:46:12;;;;;;;12.90;5.40;;;;;;;3.03;100.00;102359.16;7385797;19;20063;-78
2022/12/06 00:48:42;;;;;;;12.63;5.45;;;;;;;3.02;100.00;102352.19;7385286;19;20010;-78
2022/12/06 00:51:16;;;;;;;10.70;4.95;;;;;;;3.01;100.00;102353.88;7380841;19;20018;-78
2022/12/06 00:53:46;;;;;;;11.90;5.47;;;;;;;3.01;100.00;102356.47;7377329;19;20027;-77
2022/12/06 00:56:16;;;;;;;16.65;5.93;;;;;;;3.00;100.00;102353.78;7381302;19;20014;-80
2022/12/06 00:58:48;;;;;;;15.38;6.43;;;;;;;2.99;100.00;102357.16;7384570;19;20082;-77
2022/12/06 01:01:21;;;;;;;15.00;5.25;;;;;;;2.99;100.00;102362.34;7384444;19;20049;-79
2022/12/06 01:03:52;;;;;;;18.20;5.80;;;;;;;2.97;100.00;102358.75;7382492;19;20244;-77
2022/12/06 01:06:28;;;;;;;14.35;5.80;;;;;;;2.98;100.00;102361.44;7383456;19;20106;-77
2022/12/06 01:09:01;;;;;;;11.63;5.07;;;;;;;3.02;100.00;102352.19;7383088;19;20413;-77
2022/12/06 01:11:31;;;;;;;12.32;5.30;;;;;;;3.01;100.00;102353.88;7382386;19;20167;-79
2022/12/06 01:14:01;;;;;;;14.30;4.85;;;;;;;3.03;100.00;102353.97;7378025;19;20010;-74
2022/12/06 01:16:33;;;;;;;16.60;4.85;;;;;;;3.09;100.00;102362.19;7375209;19;20014;-77
2022/12/06 01:19:05;;;;;;;14.10;5.45;;;;;;;3.07;100.00;102359.47;7381479;19;20010;-79
2022/12/06 01:21:38;;;;;;;14.18;4.63;;;;;;;3.08;100.00;102362.97;7378071;19;20011;-78
2022/12/06 01:24:09;;;;;;;12.90;4.95;;;;;;;3.03;100.00;102347.09;7380279;19;20015;-79
2022/12/06 01:26:38;;;;;;;12.85;5.10;;;;;;;3.02;100.00;102353.09;7376450;19;20110;-79
2022/12/06 01:29:08;;;;;;;9.60;4.53;;;;;;;3.02;100.00;102353.09;7381331;19;20019;-79
2022/12/06 01:31:38;;;;;;;11.57;5.38;;;;;;;3.05;100.00;102354.97;7377221;19;20548;-77
2022/12/06 01:34:08;;;;;;;18.27;5.03;;;;;;;3.04;100.00;102350.59;7375389;19;20129;-77
2022/12/06 01:36:41;;;;;;;12.63;5.20;;;;;;;3.02;100.00;102352.19;7375665;19;20011;-79
2022/12/06 01:39:11;;;;;;;10.93;4.38;;;;;;;3.00;100.00;102348.59;7378702;19;20385;-78
2022/12/06 01:41:41;;;;;;;11.57;4.05;;;;;;;3.03;100.00;102351.41;7378193;19;20029;-78
2022/12/06 01:44:40;;;;;;;13.10;4.65;;;;;;;3.02;100.00;102355.69;7375875;19;20007;-78
2022/12/06 01:47:15;;;;;;;10.70;4.60;;;;;;;3.01;100.00;102351.28;7374163;19;20088;-77
2022/12/06 01:49:48;;;;;;;15.05;5.25;;;;;;;3.03;100.00;102353.97;7377024;19;20048;-78
2022/12/06 01:52:24;;;;;;;11.20;4.57;;;;;;;3.05;100.00;102352.41;7373740;19;20019;-78
2022/12/06 01:54:54;;;;;;;11.07;4.25;;;;;;;3.08;100.00;102342.22;7375425;19;20015;-78
2022/12/06 01:57:24;;;;;;;10.10;4.22;;;;;;;3.07;100.00;102356.00;7379815;19;20022;-78
2022/12/06 01:59:54;;;;;;;10.23;3.97;;;;;;;3.14;100.00;102347.78;7376321;19;20074;-77
2022/12/06 02:02:24;;;;;;;8.48;3.80;;;;;;;3.16;100.00;102346.19;7373906;19;20014;-78
2022/12/06 02:04:55;;;;;;;10.15;4.07;;;;;;;3.19;100.00;102341.22;7376800;19;20011;-78
2022/12/06 02:07:29;;;;;;;8.52;3.55;;;;;;;3.22;100.00;102341.44;7377576;19;20082;-77
2022/12/06 02:09:59;;;;;;;9.52;3.92;;;;;;;3.21;100.00;102344.81;7377417;19;20577;-78
2022/12/06 02:12:29;;;;;;;11.82;4.07;;;;;;;3.21;100.00;102337.94;7377415;19;20031;-78
2022/12/06 02:14:59;;;;;;;9.10;3.55;;;;;;;3.21;100.00;102340.53;7374167;19;20816;-77
2022/12/06 02:17:40;;;;;;;13.73;3.95;;;;;;;3.26;100.00;102336.56;7375492;19;20477;-77
2022/12/06 02:20:21;;;;;;;13.80;5.65;;;;;;;3.34;100.00;102333.56;7374771;19;20010;-78
2022/12/06 02:23:22;;;;;;;7.43;3.45;;;;;;;3.36;100.00;102335.47;7374926;19;20117;-78
2022/12/06 02:26:18;;;;;;;7.75;3.55;;;;;;;3.47;100.00;102338.75;7373871;19;20018;-77
2022/12/06 02:29:19;;;;;;;6.95;3.00;;;;;;;3.48;100.00;102333.69;7376304;19;20022;-77
2022/12/06 02:31:58;;;;;;;7.57;3.38;;;;;;;3.49;100.00;102330.28;7376864;19;20018;-77
2022/12/06 02:34:36;;;;;;;8.32;3.10;;;;;;;3.48;100.00;102336.28;7375823;19;20011;-76
2022/12/06 02:37:12;;;;;;;9.88;3.80;;;;;;;3.54;100.00;102333.19;7373279;19;20102;-75
2022/12/06 02:39:49;;;;;;;7.30;2.78;;;;;;;3.55;100.00;102325.50;7378303;19;20014;-75
2022/12/06 02:42:23;;;;;;;10.20;3.25;;;;;;;3.63;100.00;102328.59;7375879;19;20014;-78
2022/12/06 02:45:00;;;;;;;7.88;3.08;;;;;;;3.60;100.00;102324.09;7378995;19;19999;-78
2022/12/06 02:47:34;;;;;;;;;;;;;;;3.64;100.00;102334.69;7374912;19;20675;-75
2022/12/06 02:50:08;;;;;;;9.88;3.17;;;;;;;3.67;100.00;102329.69;7374649;19;19954;-75
2022/12/06 02:52:41;;;;;;;7.63;2.35;;;;;;;3.67;100.00;102321.91;7375452;19;20010;-77
2022/12/06 02:55:13;;;;;;;9.35;3.47;;;;;;;3.73;100.00;102323.19;7372236;19;20041;-75
2022/12/06 02:57:47;;;;;;;7.85;2.58;;;;;;;3.76;100.00;102332.88;7372950;19;20503;-74
2022/12/06 03:00:34;;;;;;;8.63;3.00;;;;;;;3.74;100.00;102329.28;7375264;19;20011;-75
2022/12/06 03:03:25;;;;;;;5.30;2.58;;;;;;;3.77;100.00;102334.66;7370528;19;20020;-75
2022/12/06 03:06:14;;;;;;;5.80;2.28;;;;;;;3.83;100.00;102333.38;7374050;19;20511;-75
2022/12/06 03:08:55;;;;;;;7.18;2.83;;;;;;;3.82;100.00;102333.28;7374504;19;20043;-75
2022/12/06 03:11:31;;;;;;;10.68;3.40;;;;;;;3.81;100.00;102323.69;7369377;19;20014;-75
2022/12/06 03:14:05;;;;;;;8.70;3.30;;;;;;;3.81;100.00;102326.28;7368363;19;20011;-74
2022/12/06 03:16:45;;;;;;;6.60;2.50;;;;;;;3.79;100.00;102328.78;7368469;19;20517;-75
2022/12/06 03:19:21;;;;;;;6.10;2.72;;;;;;;3.79;100.00;102325.28;7369532;19;20094;-76
2022/12/06 03:21:57;;;;;;;10.48;2.30;;;;;;;3.79;100.00;102323.59;7371458;19;20255;-75
2022/12/06 03:24:29;;;;;;;11.30;2.92;;;;;;;3.79;100.00;102333.97;7370999;19;20113;-74
2022/12/06 03:27:03;;;;;;;7.20;2.53;;;;;;;3.86;100.00;102328.38;7372149;19;20007;-74
2022/12/06 03:29:35;;;;;;;7.00;2.85;;;;;;;3.85;100.00;102323.09;7372314;19;20100;-75
2022/12/06 03:32:08;;;;;;;6.43;2.30;;;;;;;3.83;100.00;102332.47;7372469;19;20018;-76
2022/12/06 03:34:44;;;;;;;6.80;2.70;;;;;;;3.80;100.00;102334.88;7369915;19;20529;-76
2022/12/06 03:37:19;;;;;;;6.47;2.53;;;;;;;3.81;100.00;102331.47;7368419;19;20031;-76
2022/12/06 03:39:51;;;;;;;5.90;2.70;;;;;;;3.79;100.00;102323.59;7370513;19;20011;-76
2022/12/06 03:42:21;;;;;;;4.60;2.53;;;;;;;3.78;100.00;102331.28;7371843;19;20090;-76
2022/12/06 03:44:52;;;;;;;7.03;2.60;;;;;;;3.81;100.00;102328.88;7371583;19;20026;-76
2022/12/06 03:47:29;;;;;;;5.32;2.50;;;;;;;3.78;100.00;102329.56;7366397;19;20408;-74
2022/12/06 03:50:05;;;;;;;7.65;2.63;;;;;;;3.77;100.00;102329.47;7369273;19;20018;-77
2022/12/06 03:52:35;;;;;;;8.73;2.58;;;;;;;3.73;100.00;102333.56;7370580;19;20015;-76
2022/12/06 03:55:05;;;;;;;9.75;2.30;;;;;;;3.71;100.00;102327.38;7365033;19;20014;-76
2022/12/06 03:57:36;;;;;;;6.00;2.15;;;;;;;3.69;100.00;102331.59;7366005;19;20100;-75
2022/12/06 04:00:08;;;;;;;6.05;2.45;;;;;;;3.66;100.00;102326.19;7374311;19;20233;-74
2022/12/06 04:02:38;;;;;;;6.38;2.78;;;;;;;3.56;100.00;102314.31;7377151;19;20586;-77
2022/12/06 04:05:11;;;;;;;6.30;2.65;;;;;;;3.50;100.00;102324.31;7374809;19;20128;-77
2022/12/06 04:07:41;;;;;;;6.28;2.78;;;;;;;3.42;100.00;102330.69;7377669;19;20098;-75
2022/12/06 04:10:11;;;;;;;5.75;2.47;;;;;;;3.40;100.00;102326.19;7374136;19;20027;-75
2022/12/06 04:15:24;;;;;;;6.05;2.22;;;;;;;3.25;100.00;102329.56;7376668;19;20029;-74
2022/12/06 04:23:25;;;;;;;8.38;2.80;;;;;;;3.04;100.00;102324.69;7372126;19;20110;-75
2022/12/06 04:25:55;;;;;;;4.75;2.65;;;;;;;2.99;100.00;102334.72;7381950;19;20010;-77
2022/12/06 04:39:19;;;;;;;6.07;2.90;;;;;;;2.86;100.00;102324.34;7375230;19;20014;-74
2022/12/06 04:44:32;;;;;;;7.65;3.40;;;;;;;2.77;100.00;102314.25;7379886;19;20061;-74
2022/12/06 04:47:02;;;;;;;4.10;2.20;;;;;;;2.77;100.00;102323.72;7375784;19;20351;-74
2022/12/06 04:49:32;;;;;;;5.78;2.28;;;;;;;2.77;100.00;102318.53;7376680;19;20851;-74
2022/12/06 04:52:05;;;;;;;5.15;2.10;;;;;;;2.69;100.00;102315.41;7375036;19;20018;-74
2022/12/06 04:54:35;;;;;;;4.47;2.20;;;;;;;2.66;100.00;102314.31;7374675;19;20021;-75
2022/12/06 04:57:09;;;;;;;7.05;3.00;;;;;;;2.63;100.00;102310.72;7375087;19;20018;-75
2022/12/06 04:59:41;;;;;;;9.25;2.97;;;;;;;2.59;100.00;102312.97;7381488;19;20025;-77
2022/12/06 05:02:13;;;;;;;6.22;2.47;;;;;;;2.53;100.00;102317.75;7378825;19;20359;-78
2022/12/06 05:04:44;;;;;;;7.33;2.67;;;;;;;2.47;100.00;102314.72;7375220;19;20010;-77
2022/12/06 05:07:16;;;;;;;4.57;2.17;;;;;;;2.40;100.00;102318.59;7375629;19;20021;-77
2022/12/06 05:09:46;;;;;;;5.80;2.70;;;;;;;2.36;100.00;102310.50;7378229;19;20018;-77
2022/12/06 05:12:16;;;;;;;7.40;2.88;;;;;;;2.32;100.00;102321.44;7370675;19;20022;-77
2022/12/06 05:14:46;;;;;;;5.03;2.45;;;;;;;2.25;100.00;102310.66;7373464;19;20014;-75
2022/12/06 05:17:16;;;;;;;7.35;3.00;;;;;;;2.20;100.00;102312.00;7375166;19;20035;-75
2022/12/06 05:19:46;;;;;;;6.13;2.60;;;;;;;2.17;100.00;102304.03;7373481;19;20018;-77
2022/12/06 05:22:18;;;;;;;4.85;2.45;;;;;;;2.15;100.00;102307.31;7375240;19;20077;-79
2022/12/06 05:24:48;;;;;;;6.45;2.90;;;;;;;2.13;100.00;102314.97;7375807;19;20014;-78
2022/12/06 05:27:18;;;;;;;6.65;2.88;;;;;;;2.11;100.00;102307.88;7369565;19;20019;-77
2022/12/06 05:29:48;;;;;;;6.65;3.40;;;;;;;2.10;100.00;102314.75;7372446;19;20106;-78
2022/12/06 05:32:19;;;;;;;6.57;3.00;;;;;;;2.07;100.00;102306.81;7371679;19;20036;-78
2022/12/06 05:34:49;;;;;;;8.27;4.05;;;;;;;2.05;100.00;102315.25;7372290;19;20044;-78
2022/12/06 05:37:21;;;;;;;9.40;3.90;;;;;;;2.03;100.00;102319.41;7369147;19;20015;-78
2022/12/06 05:39:51;;;;;;;7.00;3.22;;;;;;;2.01;100.00;102319.31;7373433;19;20030;-78
2022/12/06 05:42:21;;;;;;;9.60;3.35;;;;;;;1.98;100.00;102320.78;7372230;19;20026;-77
2022/12/06 05:44:51;;;;;;;6.38;2.97;;;;;;;1.94;100.00;102322.25;7374600;19;20052;-77
2022/12/06 05:47:21;;;;;;;6.63;3.40;;;;;;;1.95;100.00;102318.88;7373814;19;20018;-78
2022/12/06 05:49:50;;;;;;;11.18;3.53;;;;;;;1.97;100.00;102314.69;7373833;19;20034;-77
2022/12/06 05:52:23;;;;;;;6.75;3.38;;;;;;;1.97;100.00;102325.06;7369659;19;20023;-77
2022/12/06 05:54:56;;;;;;;5.45;3.40;;;;;;;2.01;100.00;102318.41;7376890;19;20042;-78
2022/12/06 05:57:26;;;;;;;7.43;3.38;;;;;;;2.01;100.00;102310.66;7377423;19;20006;-75
2022/12/06 05:59:56;;;;;;;9.50;4.10;;;;;;;2.01;100.00;102314.13;7370865;19;20045;-75
2022/12/06 06:02:26;;;;;;;7.78;3.28;;;;;;;1.97;100.00;102312.13;7373378;19;20017;-75
2022/12/06 06:04:56;;;;;;;6.32;3.03;;;;;;;1.97;100.00;102317.28;7371834;19;20014;-75
2022/12/06 06:07:28;;;;;;;7.55;3.53;;;;;;;1.96;100.00;102320.66;7373101;19;20026;-75
2022/12/06 06:09:58;;;;;;;7.32;3.03;;;;;;;1.94;100.00;102330.91;7369705;19;20021;-75
2022/12/06 06:12:28;;;;;;;6.20;3.00;;;;;;;1.90;100.00;102326.31;7370944;19;20578;-77
2022/12/06 06:14:58;;;;;;;6.85;3.17;;;;;;;1.91;100.00;102322.91;7371223;19;20094;-75
2022/12/06 06:17:27;;;;;;;8.88;3.35;;;;;;;1.88;100.00;102321.81;7373007;19;20101;-75
2022/12/06 06:20:04;;;;;;;6.55;2.92;;;;;;;1.86;100.00;102323.38;7372011;19;20249;-75
2022/12/06 06:22:38;;;;;;;5.78;3.00;;;;;;;1.84;100.00;102319.78;7372929;19;20229;-75
2022/12/06 06:25:09;;;;;;;8.20;3.70;;;;;;;1.85;100.00;102322.47;7372288;19;20177;-75
2022/12/06 06:27:40;;;;;;;8.30;3.58;;;;;;;1.83;100.00;102315.41;7371624;19;20074;-75
2022/12/06 06:30:12;;;;;;;9.43;3.92;;;;;;;1.83;100.00;102318.88;7371890;19;20011;-77
2022/12/06 06:32:42;;;;;;;9.70;3.90;;;;;;;1.82;100.00;102321.38;7373989;19;20019;-78
2022/12/06 06:35:12;;;;;;;7.72;4.53;;;;;;;1.82;100.00;102321.38;7373930;19;20010;-77
2022/12/06 06:37:44;;;;;;;8.93;4.28;;;;;;;1.78;100.00;102319.34;7376434;19;20010;-77
2022/12/06 06:40:14;;;;;;;7.15;3.80;;;;;;;1.73;100.00;102311.25;7369786;19;20010;-77
2022/12/06 06:42:44;;;;;;;7.13;3.83;;;;;;;1.71;100.00;102315.41;7376132;19;20014;-78
2022/12/06 06:45:14;;;;;;;7.38;3.85;;;;;;;1.64;100.00;102303.72;7372158;19;20018;-75
2022/12/06 06:47:43;;;;;;;7.13;4.13;;;;;;;1.59;100.00;102307.66;7371006;19;20006;-75
2022/12/06 06:50:14;;;;;;;8.40;3.45;;;;;;;1.53;100.00;102301.16;7370062;19;20015;-75
2022/12/06 06:52:47;;;;;;;6.65;3.45;;;;;;;1.46;100.00;102306.66;7371322;19;20488;-75
2022/12/06 06:55:18;;;;;;;7.57;3.45;;;;;;;1.40;100.00;102303.63;7368592;19;20499;-77
2022/12/06 06:57:48;;;;;;;5.40;3.03;;;;;;;1.33;100.00;102302.28;7369761;19;20567;-75
2022/12/06 07:00:19;;;;;;;7.55;3.25;;;;;;;1.25;100.00;102308.56;7370536;19;20521;-75
2022/12/06 07:02:49;;;;;;;7.28;3.28;;;;;;;1.21;100.00;102301.38;7370319;19;20010;-75
2022/12/06 07:05:19;;;;;;;9.45;4.35;;;;;;;1.15;100.00;102314.75;7367800;19;20510;-76
2022/12/06 07:07:51;;;;;;;8.35;3.40;;;;;;;1.09;100.00;102310.81;7368190;19;20022;-75
2022/12/06 07:10:24;;;;;;;8.32;3.80;;;;;;;1.02;100.00;102304.31;7366946;19;20030;-75
2022/12/06 07:12:54;;;;;;;8.38;3.72;;;;;;;0.97;100.00;102306.56;7368805;19;20522;-75
2022/12/06 07:15:25;;;;;;;8.65;3.60;;;;;;;0.92;100.00;102291.50;7369144;19;20082;-79
2022/12/06 07:17:57;;;;;;;7.82;3.42;;;;;;;0.89;100.00;102296.44;7369193;19;20022;-79
2022/12/06 07:20:27;;;;;;;8.30;3.67;;;;;;;0.84;100.00;102303.81;7370041;19;20022;-79
2022/12/06 07:23:00;;;;;;;6.78;3.35;;;;;;;0.78;100.00;102303.38;7369378;19;20102;-76
2022/12/06 07:25:30;;;;;;;7.43;3.50;;;;;;;0.73;100.00;102309.88;7367173;19;20018;-76
2022/12/06 07:28:00;;;;;;;6.40;3.38;;;;;;;0.67;100.00;102306.81;7368884;19;20021;-76
2022/12/06 07:30:30;;;;;;;5.68;3.25;;;;;;;0.64;100.00;102304.00;7370343;19;20101;-76
2022/12/06 07:33:00;;;;;;;6.57;3.58;;;;;;;0.60;100.00;102312.28;7366860;19;20503;-76
2022/12/06 07:35:30;;;;;;;7.75;3.42;;;;;;;0.59;100.00;102310.50;7374276;19;20777;-76
2022/12/06 07:38:22;;;;;;;6.47;3.47;;;;;;;0.58;100.00;102314.75;7373035;19;20022;-76
2022/12/06 07:40:52;;;;;;;8.20;4.38;;;;;;;0.55;100.00;102308.47;7374611;19;20364;-76
2022/12/06 07:46:16;;;;;;;12.93;4.80;;;;;;;0.54;100.00;102323.03;7375309;19;20018;-77
2022/12/06 07:48:46;;;;;;;10.02;4.53;;;;;;;0.52;100.00;102327.19;7381977;19;20007;-76
2022/12/06 07:51:16;;;;;;;10.05;4.32;;;;;;;0.50;100.00;102327.84;7383297;19;20011;-76
2022/12/06 07:53:48;;;;;;;10.27;4.90;;;;;;;0.48;100.00;102332.00;7380208;19;20062;-76
2022/12/06 07:56:18;;;;;;;8.38;4.20;;;;;;;0.50;100.00;102335.59;7378439;19;20516;-76
2022/12/06 07:58:48;;;;;;;10.25;4.95;;;;;;;0.46;100.00;102333.56;7380643;19;20435;-80
2022/12/06 08:01:18;;;;;;;11.45;4.60;;;;;;;0.43;100.00;102331.66;7376947;19;20294;-80
2022/12/06 08:03:47;;;;;;;10.48;4.07;;;;;;;0.45;100.00;102331.75;7380771;19;20010;-79
2022/12/06 08:06:17;;;;;;;11.45;4.82;;;;;;;0.43;100.00;102323.91;7380403;19;20018;-76
2022/12/06 08:08:50;;;;;;;8.73;4.32;;;;;;;0.43;100.00;102333.31;7384032;19;20014;-76
2022/12/06 08:11:23;;;;;;;6.72;3.97;;;;;;;0.41;100.00;102334.88;7374144;19;20018;-76
2022/12/06 08:13:53;;;;;;;8.75;4.45;;;;;;;0.39;100.00;102341.59;7381370;19;20014;-77
2022/12/06 08:16:23;;;;;;;7.43;3.85;;;;;;;0.38;100.00;102337.22;7378806;19;20523;-76
2022/12/06 08:18:55;;;;;;;9.60;3.90;;;;;;;0.38;100.00;102330.38;7380896;19;20010;-76
2022/12/06 08:21:25;;;;;;;9.18;4.25;;;;;;;0.43;100.00;102328.16;7380837;19;20011;-76
2022/12/06 08:23:58;;;;;;;9.95;4.50;;;;;;;0.47;100.00;102328.53;7378991;19;20021;-80
2022/12/06 08:26:28;;;;;;;9.73;4.30;;;;;;;0.50;100.00;102326.19;7377900;19;20583;-80
2022/12/06 08:29:01;;;;;;;9.80;4.55;;;;;;;0.57;100.00;102330.13;7377114;19;20029;-80
2022/12/06 08:31:33;;;;;;;11.90;4.78;;;;;;;0.60;100.00;102327.78;7374213;19;20007;-80
2022/12/06 08:34:04;;;;;;;9.32;4.82;;;;;;;0.71;100.00;102326.91;7377266;19;20018;-79
2022/12/06 08:36:34;;;;;;;11.20;4.80;;;;;;;0.72;100.00;102333.88;7375473;19;20744;-80
2022/12/06 08:39:07;;;;;;;9.85;4.70;;;;;;;0.76;100.00;102335.91;7375439;19;20028;-79
2022/12/06 08:44:20;;;;;;;10.10;3.90;;;;;;;0.85;100.00;102336.63;7373063;19;20467;-80
2022/12/06 08:46:51;;;;;;;7.93;4.03;;;;;;;0.90;100.00;102331.81;7377805;19;20022;-80
2022/12/06 08:49:21;;;;;;;10.25;4.22;;;;;;;0.94;100.00;102328.66;7374812;19;20019;-80
2022/12/06 08:51:51;;;;;;;10.52;4.82;;;;;;;1.00;100.00;102335.97;7369200;19;20011;-78
2022/12/06 08:54:26;;;;;;;13.63;5.75;;;;;;;1.13;100.00;102331.81;7373049;19;20352;-75
2022/12/06 08:56:56;;;;;;;10.82;5.00;;;;;;;1.13;100.00;102328.34;7369942;19;20019;-78
2022/12/06 08:59:26;;;;;;;10.82;5.00;;;;;;;1.24;100.00;102327.44;7366868;19;20055;-78
2022/12/06 09:01:55;;;;;;;9.85;4.78;;;;;;;1.32;100.00;102326.31;7375093;19;20094;-78
2022/12/06 09:04:26;;;;;;;11.75;5.07;;;;;;;1.38;100.00;102321.63;7370720;19;20017;-76
2022/12/06 09:06:56;;;;;;;11.13;5.32;;;;;;;1.45;100.00;102333.31;7373569;19;20010;-75
2022/12/06 09:09:29;;;;;;;12.20;5.60;;;;;;;1.49;100.00;102331.06;7373502;19;20014;-77
2022/12/06 09:11:59;;;;;;;11.27;5.60;;;;;;;1.57;100.00;102329.94;7368941;19;20055;-77
2022/12/06 09:14:29;;;;;;;11.85;4.90;;;;;;;1.62;100.00;102323.41;7374118;19;20275;-77
2022/12/06 09:16:59;;;;;;;10.73;5.93;;;;;;;1.72;100.00;102329.25;7372975;19;20953;-76
2022/12/06 09:19:28;;;;;;;12.90;6.30;;;;;;;1.84;100.00;102327.53;7371371;19;20037;-76
2022/12/06 09:21:58;;;;;;;13.30;6.20;;;;;;;1.98;100.00;102326.84;7368831;19;20018;-76
2022/12/06 09:24:30;;;;;;;12.25;6.15;;;;;;;2.10;100.00;102324.19;7371290;19;20018;-76
2022/12/06 09:27:00;;;;;;;15.23;7.03;;;;;;;2.20;100.00;102327.53;7369599;19;20019;-76
2022/12/06 09:29:30;;;;;;;12.95;7.15;;;;;;;2.30;100.00;102326.50;7373332;19;20063;-76
2022/12/06 09:32:07;;;;;;;12.02;5.97;;;;;;;2.39;100.00;102323.66;7377815;19;20074;-76
2022/12/06 09:34:37;;;;;;;13.73;5.55;;;;;;;2.46;100.00;102323.28;7379882;19;20015;-76
2022/12/06 09:37:13;;;;;;;16.17;6.40;;;;;;;2.57;100.00;102320.66;7374366;19;20014;-75
2022/12/06 09:39:48;;;;;;;14.45;6.18;;;;;;;2.68;100.00;102331.75;7377104;19;20138;-76
2022/12/06 09:42:37;;;;;;;15.82;6.40;;;;;;;2.79;100.00;102323.03;7370843;19;20014;-76
2022/12/06 09:45:26;;;;;;;11.18;6.38;;;;;;;2.90;100.00;102327.25;7373767;19;20149;-75
2022/12/06 09:48:20;;;;;;;10.77;5.70;;;;;;;3.01;100.00;102324.47;7372954;19;20021;-75
2022/12/06 09:50:55;;;;;;;;;;;;;;;3.10;100.00;102330.28;7369439;19;20025;-75
2022/12/06 09:53:37;;;;;;;15.57;6.65;;;;;;;3.18;100.00;102323.88;7370349;19;19955;-76
2022/12/06 09:56:19;;;;;;;12.70;6.35;;;;;;;3.28;100.00;102331.47;7371130;19;20257;-77
2022/12/06 09:59:04;;;;;;;15.07;6.55;;;;;;;3.38;100.00;102326.09;7371493;19;20010;-75
2022/12/06 10:01:44;;;;;;;13.30;6.22;;;;;;;3.45;100.00;102328.28;7370461;19;20029;-75
2022/12/06 10:04:41;;;;;;;11.18;6.20;;;;;;;3.51;100.00;102326.09;7371486;19;20014;-77
2022/12/06 10:07:17;;;;;;;11.93;6.13;;;;;;;3.57;100.00;102323.91;7367134;19;20011;-75
2022/12/06 10:09:58;;;;;;;16.08;6.40;;;;;;;3.64;100.00;102329.50;7374639;19;20021;-75
2022/12/06 10:12:46;;;;;;;11.63;5.70;;;;;;;3.69;100.00;102322.91;7379329;19;20048;-77
2022/12/06 10:15:28;;;;;;;15.20;6.15;;;;;;;3.78;100.00;102320.91;7374348;19;20014;-77
2022/12/06 10:18:11;;;;;;;11.32;5.50;;;;;;;3.85;100.00;102312.69;7370312;19;20014;-77
2022/12/06 10:20:52;;;;;;;14.27;6.43;;;;;;;3.97;100.00;102321.28;7368879;19;20011;-76
2022/12/06 10:23:41;;;;;;;11.10;5.60;;;;;;;4.07;100.00;102320.16;7366966;19;20029;-76
2022/12/06 10:26:16;;;;;;;12.15;5.85;;;;;;;4.19;100.00;102324.38;7369240;19;20144;-76
2022/12/06 10:28:55;;;;;;;12.13;5.63;;;;;;;4.27;100.00;102325.75;7375978;19;20018;-76
2022/12/06 10:31:28;;;;;;;11.52;5.50;;;;;;;4.35;100.00;102317.53;7371593;19;20074;-76
2022/12/06 10:34:13;;;;;;;11.05;5.85;;;;;;;4.36;100.00;102314.16;7367567;19;20021;-74
2022/12/06 10:36:54;;;;;;;13.30;6.03;;;;;;;4.32;100.00;102312.16;7364669;19;20015;-74
2022/12/06 10:39:35;;;;;;;14.25;6.53;;;;;;;4.29;100.00;102307.66;7365558;19;20310;-75
2022/12/06 10:42:13;;;;;;;11.40;5.63;;;;;;;4.38;100.00;102302.16;7368258;19;20487;-75
2022/12/06 10:44:49;;;;;;;15.70;6.40;;;;;;;4.50;100.00;102298.59;7365879;19;20018;-75
2022/12/06 10:47:23;;;;;;;11.30;6.00;;;;;;;4.72;100.00;102300.78;7364550;19;20729;-77
2022/12/06 10:49:58;;;;;;;17.55;6.60;;;;;;;4.90;100.00;102288.91;7365014;19;20096;-75
2022/12/06 10:52:37;;;;;;;15.32;6.60;;;;;;;5.02;100.00;102291.31;7368588;19;20015;-75
2022/12/06 10:55:21;;;;;;;12.32;6.22;;;;;;;5.24;100.00;102277.81;7371397;19;20094;-75
2022/12/06 10:57:58;;;;;;;13.88;6.07;;;;;;;5.34;100.00;102276.66;7366032;19;20019;-75
2022/12/06 11:00:36;;;;;;;13.60;6.40;;;;;;;5.27;100.00;102278.00;7377563;19;20044;-75
2022/12/06 11:03:16;;;;;;;14.13;5.00;;;;;;;5.33;100.00;102283.56;7375927;19;20090;-75
2022/12/06 11:05:50;;;;;;;13.30;6.25;;;;;;;5.37;100.00;102277.72;7375595;19;20101;-74
2022/12/06 11:08:25;;;;;;;11.23;5.22;;;;;;;5.44;100.00;102274.66;7370095;19;20021;-74
2022/12/06 11:10:58;;;;;;;10.88;5.22;;;;;;;5.52;100.00;102269.91;7377618;19;20015;-75
2022/12/06 11:13:37;;;;;;;8.52;5.47;;;;;;;5.66;100.00;102273.25;7373092;19;20094;-76
2022/12/06 11:16:16;;;;;;;9.88;4.95;;;;;;;5.78;100.00;102268.75;7377744;19;20340;-75
2022/12/06 11:18:47;;;;;;;11.07;5.45;;;;;;;5.86;100.00;102275.28;7376318;19;20238;-74
2022/12/06 11:21:27;;;;;;;9.95;4.15;;;;;;;5.98;100.00;102268.16;7374283;19;20011;-76
2022/12/06 11:24:05;;;;;;;9.32;4.68;;;;;;;6.10;100.00;102266.22;7369494;19;20603;-74
2022/12/06 11:26:39;;;;;;;13.90;4.35;;;;;;;6.13;100.00;102263.78;7369649;19;20011;-76
2022/12/06 11:29:13;;;;;;;8.05;3.63;;;;;;;6.16;100.00;102263.94;7368601;19;20015;-74
2022/12/06 11:31:49;;;;;;;8.95;3.88;;;;;;;6.38;100.00;102260.75;7373332;19;20007;-75
2022/12/06 11:34:24;;;;;;;8.73;3.80;;;;;;;6.57;100.00;102253.06;7367484;19;20025;-75
2022/12/06 11:36:56;;;;;;;12.82;4.38;;;;;;;6.54;100.00;102252.00;7374665;19;20028;-75
2022/12/06 11:39:30;;;;;;;8.30;3.47;;;;;;;6.49;100.00;102246.56;7365334;19;20015;-75
2022/12/06 11:42:03;;;;;;;8.30;4.22;;;;;;;6.23;100.00;102250.44;7368126;19;20010;-74
2022/12/06 11:44:42;;;;;;;9.77;3.90;;;;;;;6.41;100.00;102249.59;7370886;19;20011;-74
2022/12/06 11:47:23;;;;;;;9.68;3.80;;;;;;;6.48;100.00;102242.16;7370395;19;20590;-75
2022/12/06 11:49:56;;;;;;;10.30;3.78;;;;;;;6.58;100.00;102243.53;7372959;19;20035;-73
2022/12/06 11:52:37;;;;;;;9.77;4.18;;;;;;;6.74;100.00;102242.63;7368505;19;20014;-74
2022/12/06 11:55:16;;;;;;;14.50;4.85;;;;;;;6.77;100.00;102234.94;7365156;19;20018;-76
2022/12/06 11:57:53;;;;;;;8.82;3.60;;;;;;;6.87;100.00;102237.22;7363696;19;20719;-74
2022/12/06 12:00:25;;;;;;;6.85;3.90;;;;;;;6.93;100.00;102229.69;7369057;19;20014;-77
2022/12/06 12:02:58;;;;;;;7.88;3.13;;;;;;;7.01;100.00;102228.34;7371715;19;20011;-76
2022/12/06 12:05:35;;;;;;;5.47;2.97;;;;;;;7.08;100.00;102232.16;7372098;19;20097;-75
2022/12/06 12:08:17;;;;;;;5.95;3.17;;;;;;;7.10;100.00;102227.91;7367603;19;20062;-77
2022/12/06 12:10:48;;;;;;;5.10;2.80;;;;;;;7.06;100.00;102232.09;7363855;19;20021;-77
2022/12/06 12:16:07;;;;;;;6.63;2.67;;;;;;;7.05;100.00;102226.81;7370770;19;20011;-76
2022/12/06 12:18:44;;;;;;;8.00;2.70;;;;;;;7.08;100.00;102222.63;7368527;19;20104;-80
2022/12/06 12:21:14;;;;;;;5.57;2.70;;;;;;;7.07;100.00;102219.94;7376683;19;20117;-80